Big Bear Station Historical Data
Daily Summary for February 23, 2019 Units:  English    Metric   Both
Next Day »
Daily Weekly Monthly Yearly Custom
  High: Low: Average:
Temperature: 41.2 °F -4.0 °F 17.1 °F
Dew Point: 23.3 °F -6.2 °F 10.7 °F
Humidity: 94% 34% 79%
Wind Speed: 7.3mph 0.0mph 0.9mph
Wind Gust: -999.0mph - -
Wind- - WNW
Pressure: 23.57 in 23.47 in -
Precipitation: 0.07 in    
Historical Graphs
 
 
Tabular Data for February 23, 2019
Time Temperature Dew Point Pressure Wind Wind Speed Wind Gust Humidity Rainfall Rate (Hourly)
00:03 2.3 °F 0.7 °F 23.47 in Calm   -999.0 mph 93% 0.00 in
00:18 1.8 °F 0.0 °F 23.47 in Calm   -999.0 mph 92% 0.00 in
00:34 1.4 °F -0.4 °F 23.47 in Calm   -999.0 mph 92% 0.00 in
00:49 1.4 °F 0.1 °F 23.48 in Calm   -999.0 mph 94% 0.00 in
01:05 0.9 °F -0.9 °F 23.48 in Calm   -999.0 mph 92% 0.00 in
01:20 0.9 °F -0.9 °F 23.48 in Calm   -999.0 mph 92% 0.00 in
01:35 1.0 °F -0.5 °F 23.49 in Calm   -999.0 mph 93% 0.00 in
01:50 -0.2 °F -2.0 °F 23.49 in Calm   -999.0 mph 92% 0.00 in
02:05 -0.6 °F -2.4 °F 23.49 in Calm   -999.0 mph 92% 0.00 in
02:21 -1.3 °F -3.1 °F 23.49 in Calm   -999.0 mph 92% 0.00 in
02:36 -1.8 °F -3.6 °F 23.49 in Calm   -999.0 mph 92% 0.00 in
02:51 -1.3 °F -2.8 °F 23.49 in Calm   -999.0 mph 93% 0.00 in
03:06 -1.8 °F -3.6 °F 23.50 in Calm   -999.0 mph 92% 0.00 in
03:21 -2.2 °F -4.2 °F 23.49 in Calm   -999.0 mph 91% 0.00 in
03:37 -2.4 °F -4.1 °F 23.50 in Calm   -999.0 mph 92% 0.00 in
03:52 -2.9 °F -4.6 °F 23.50 in Calm   -999.0 mph 92% 0.00 in
04:07 -3.3 °F -5.3 °F 23.50 in Calm   -999.0 mph 91% 0.00 in
04:22 -3.1 °F -4.8 °F 23.50 in Calm   -999.0 mph 92% 0.00 in
04:37 -2.9 °F -4.6 °F 23.50 in Calm   -999.0 mph 92% 0.00 in
04:53 -3.5 °F -5.5 °F 23.51 in Calm   -999.0 mph 91% 0.00 in
05:08 -3.5 °F -5.2 °F 23.51 in Calm   -999.0 mph 92% 0.00 in
05:23 -3.6 °F -5.6 °F 23.51 in Calm   -999.0 mph 91% 0.00 in
05:38 -3.6 °F -5.6 °F 23.52 in Calm   -999.0 mph 91% 0.00 in
05:54 -3.8 °F -5.8 °F 23.52 in Calm   -999.0 mph 91% 0.00 in
06:09 -3.6 °F -5.6 °F 23.52 in Calm   -999.0 mph 91% 0.00 in
06:24 -4.0 °F -6.0 °F 23.53 in Calm   -999.0 mph 91% 0.00 in
06:39 -3.8 °F -5.8 °F 23.53 in Calm   -999.0 mph 91% 0.00 in
06:54 -4.0 °F -6.2 °F 23.53 in Calm   -999.0 mph 90% 0.00 in
07:10 -3.6 °F -5.6 °F 23.54 in Calm   -999.0 mph 91% 0.00 in
07:25 -2.9 °F -4.9 °F 23.54 in Calm   -999.0 mph 91% 0.00 in
07:40 -2.6 °F -4.6 °F 23.54 in Calm   -999.0 mph 91% 0.00 in
07:55 -0.4 °F -2.2 °F 23.55 in Calm   -999.0 mph 92% 0.00 in
08:10 0.5 °F -1.3 °F 23.55 in Calm   -999.0 mph 92% 0.00 in
08:26 1.9 °F 0.1 °F 23.56 in Calm   -999.0 mph 92% 0.00 in
08:41 3.2 °F 1.4 °F 23.56 in Calm   -999.0 mph 92% 0.00 in
08:56 5.9 °F 4.3 °F 23.56 in Calm   -999.0 mph 93% 0.00 in
09:11 9.0 °F 7.4 °F 23.56 in Calm   -999.0 mph 93% 0.00 in
09:26 11.5 °F 9.9 °F 23.56 in Calm   -999.0 mph 93% 0.00 in
09:42 14.5 °F 12.6 °F 23.56 in Calm   -999.0 mph 92% 0.00 in
09:57 19.0 °F 17.1 °F 23.56 in Calm   -999.0 mph 92% 0.00 in
10:12 24.3 °F 20.2 °F 23.56 in Calm   -999.0 mph 84% 0.00 in
10:27 29.8 °F 17.2 °F 23.56 in Calm   -999.0 mph 59% 0.00 in
10:42 33.4 °F 13.3 °F 23.56 in NW 2.2 mph -999.0 mph 43% 0.00 in
10:58 36.7 °F 10.9 °F 23.56 in NNW 7.3 mph -999.0 mph 34% 0.00 in
11:13 37.8 °F 13.2 °F 23.56 in North 5.3 mph -999.0 mph 36% 0.00 in
11:28 37.6 °F 14.3 °F 23.55 in NNW 4.7 mph -999.0 mph 38% 0.00 in
11:44 38.3 °F 16.1 °F 23.55 in NW 3.7 mph -999.0 mph 40% 0.00 in
11:59 38.3 °F 16.6 °F 23.55 in South 2.2 mph -999.0 mph 41% 0.00 in
12:14 38.5 °F 17.9 °F 23.55 in WNW 3.2 mph -999.0 mph 43% 0.00 in
12:30 39.7 °F 19.0 °F 23.54 in ENE 2.7 mph -999.0 mph 43% 0.00 in
12:45 41.2 °F 19.8 °F 23.54 in WSW 1.7 mph -999.0 mph 42% 0.00 in
13:00 39.0 °F 20.0 °F 23.54 in NNW 4.2 mph -999.0 mph 46% 0.00 in
13:15 36.5 °F 21.0 °F 23.53 in NW 4.2 mph -999.0 mph 53% 0.00 in
13:31 35.6 °F 20.1 °F 23.54 in WNW 4.2 mph -999.0 mph 53% 0.00 in
13:46 35.6 °F 19.7 °F 23.54 in NW 3.2 mph -999.0 mph 52% 0.00 in
14:01 37.0 °F 19.6 °F 23.54 in WNW 3.7 mph -999.0 mph 49% 0.00 in
14:16 37.0 °F 22.3 °F 23.53 in NW 3.2 mph -999.0 mph 55% 0.00 in
14:32 35.8 °F 22.5 °F 23.53 in NW 4.7 mph -999.0 mph 58% 0.00 in
14:47 35.4 °F 22.5 °F 23.53 in NW 4.2 mph -999.0 mph 59% 0.00 in
15:02 35.6 °F 21.9 °F 23.54 in NNW 2.7 mph -999.0 mph 57% 0.00 in
15:17 35.4 °F 21.7 °F 23.54 in West 1.7 mph -999.0 mph 57% 0.00 in
15:32 34.9 °F 22.0 °F 23.54 in NW 2.2 mph -999.0 mph 59% 0.00 in
15:48 34.5 °F 22.4 °F 23.54 in NW 2.2 mph -999.0 mph 61% 0.00 in
16:03 33.8 °F 23.3 °F 23.54 in NW 2.7 mph -999.0 mph 65% 0.00 in
16:18 33.1 °F 23.3 °F 23.54 in NW 2.7 mph -999.0 mph 67% 0.00 in
16:33 32.7 °F 23.3 °F 23.54 in WNW 2.7 mph -999.0 mph 68% 0.00 in
16:48 32.4 °F 23.0 °F 23.54 in Calm   -999.0 mph 68% 0.00 in
17:04 31.5 °F 22.8 °F 23.54 in Calm   -999.0 mph 70% 0.00 in
17:19 30.6 °F 22.3 °F 23.54 in Calm   -999.0 mph 71% 0.00 in
17:34 29.5 °F 21.6 °F 23.54 in Calm   -999.0 mph 72% 0.00 in
17:50 28.0 °F 21.4 °F 23.54 in Calm   -999.0 mph 76% 0.00 in
18:05 27.0 °F 20.4 °F 23.55 in Calm   -999.0 mph 76% 0.00 in
18:20 26.2 °F 21.5 °F 23.55 in Calm   -999.0 mph 82% 0.00 in
18:35 25.7 °F 20.7 °F 23.55 in Calm   -999.0 mph 81% 0.00 in
18:51 25.2 °F 21.3 °F 23.54 in Calm   -999.0 mph 85% 0.00 in
19:06 24.4 °F 20.8 °F 23.55 in Calm   -999.0 mph 86% 0.00 in
19:21 23.9 °F 20.6 °F 23.55 in Calm   -999.0 mph 87% 0.00 in
19:36 23.7 °F 20.7 °F 23.55 in South 2.7 mph -999.0 mph 88% 0.00 in
19:52 23.5 °F 20.7 °F 23.55 in Calm   -999.0 mph 89% 0.00 in
20:07 23.4 °F 20.6 °F 23.55 in Calm   -999.0 mph 89% 0.00 in
20:22 22.6 °F 19.8 °F 23.55 in Calm   -999.0 mph 89% 0.00 in
20:37 23.2 °F 20.7 °F 23.55 in Calm   -999.0 mph 90% 0.00 in
20:52 22.6 °F 20.1 °F 23.56 in Calm   -999.0 mph 90% 0.00 in
21:08 22.3 °F 19.8 °F 23.56 in South 1.7 mph -999.0 mph 90% 0.00 in
21:23 21.7 °F 19.5 °F 23.56 in Calm   -999.0 mph 91% 0.00 in
21:38 21.6 °F 19.4 °F 23.57 in Calm   -999.0 mph 91% 0.00 in
21:53 21.4 °F 19.2 °F 23.56 in Calm   -999.0 mph 91% 0.00 in
22:08 21.2 °F 19.0 °F 23.56 in Calm   -999.0 mph 91% 0.00 in
22:24 21.0 °F 18.3 °F 23.56 in Calm   -999.0 mph 89% 0.00 in
22:39 20.5 °F 17.8 °F 23.56 in Calm   -999.0 mph 89% 0.00 in
22:54 20.1 °F 17.6 °F 23.55 in Calm   -999.0 mph 90% 0.00 in
23:09 20.1 °F 17.6 °F 23.56 in Calm   -999.0 mph 90% 0.00 in
23:24 20.1 °F 17.6 °F 23.55 in Calm   -999.0 mph 90% 0.00 in
23:40 19.6 °F 17.1 °F 23.55 in Calm   -999.0 mph 90% 0.00 in
23:55 19.2 °F 16.7 °F 23.55 in Calm   -999.0 mph 90% 0.00 in
Big Bear CA Weather